Create Tblcommutelog Verified Points Advance Search
| # | Trip ID | Id Commuter | Trip Date | Trip Num | Current Lat | Current Lng | Delta Distance | Current Time | Activity | Activity Confidence | Current Speed | |
|---|---|---|---|---|---|---|---|---|---|---|---|---|
| 68961 | 250925_714319_16576229_1605 | 714319 | (not set) | (not set) | 38.809430998488 | -77.254324607941 | 5.4368 | 2025-09-25 16:38:22 | on_foot | 100 | 0.16093413323558 | |
| 68962 | 250925_714319_16576229_1605 | 714319 | (not set) | (not set) | 38.809430998488 | -77.254324607941 | 5.4368 | 2025-09-25 16:38:22 | on_foot | 100 | 0.16093413323558 | |
| 68963 | 250925_787865_16656394_1607 | 787865 | (not set) | (not set) | 38.910248126282 | -77.029858591476 | 1.1388 | 2025-09-25 16:38:24 | on_foot | 100 | 1.019249510492 | |
| 68964 | 250925_787865_16656394_1607 | 787865 | (not set) | (not set) | 38.910248126282 | -77.029858591476 | 1.1388 | 2025-09-25 16:38:24 | on_foot | 100 | 1.019249510492 | |
| 68965 | 250925_774579_16652532_1631 | 774579 | (not set) | (not set) | 38.916625368232 | -76.936274441985 | 4.0562 | 2025-09-25 16:38:26 | in_vehicle | 100 | 16.826557708298 | |
| 68966 | 250925_788567_16657221_1601 | 788567 | (not set) | (not set) | 38.748162878474 | -77.181956998792 | 8.2844 | 2025-09-25 16:38:26 | in_vehicle | 100 | 12.973079295824 | |
| 68967 | 250925_780815_16648493_1631 | 780815 | (not set) | (not set) | 38.898525233333 | -77.052848033333 | 0.9491 | 2025-09-25 16:38:26 | in_vehicle | 100 | 7.8187166396953 | |
| 68968 | 250925_785674_16653838_1624 | 785674 | (not set) | (not set) | 39.052320206078 | -77.152622062901 | 5.1917 | 2025-09-25 16:38:27 | in_vehicle | 100 | 7.5192003361735 | |
| 68969 | 250925_788077_16656633_1614 | 788077 | (not set) | (not set) | 38.799190218795 | -77.121766851228 | 12.353 | 2025-09-25 16:38:27 | unknown | 100 | 9.7365150607526 | |
| 68970 | 250925_786132_16654406_1622 | 786132 | (not set) | (not set) | 38.7991996 | -77.1218348 | 12.2736 | 2025-09-25 16:38:27 | in_vehicle | 100 | 9.8885084088085 | |
| 68971 | 250925_720669_16583633_1616 | 720669 | (not set) | (not set) | 38.793961808085 | -77.151662014239 | 11.441 | 2025-09-25 16:38:27 | in_vehicle | 100 | 11.269859719081 | |
| 68972 | 250925_769309_16636345_1601 | 769309 | (not set) | (not set) | 38.974272805924 | -77.429005949067 | 24.898 | 2025-09-25 16:38:28 | in_vehicle | 100 | 7.2018024622922 | |
| 68973 | 250925_113832_1027663_1555 | 113832 | (not set) | (not set) | 39.106965105498 | -77.156764596002 | 15.8938 | 2025-09-25 16:38:27 | in_vehicle | 100 | 14.448308850483 | |
| 68974 | 250925_786244_16654538_1635 | 786244 | (not set) | (not set) | 39.3662433 | -76.6522442 | 0.8845 | 2025-09-25 16:38:28 | in_vehicle | 100 | 3.8758303754236 | |
| 68975 | 250925_788423_16657042_1623 | 788423 | (not set) | (not set) | 38.799110953394 | -77.122268630302 | 12.3054 | 2025-09-25 16:38:29 | unknown | 100 | 10.147791179021 | |
| 68976 | 250925_766077_16632982_1637 | 766077 | (not set) | (not set) | 38.898318858878 | -77.049468696989 | 0.1259 | 2025-09-25 16:38:30 | in_vehicle | 100 | 1.8552129247991 | |
| 68977 | 250925_786113_16654392_1622 | 786113 | (not set) | (not set) | 38.799027872803 | -77.122529200603 | 12.2901 | 2025-09-25 16:38:30 | in_vehicle | 100 | 10.447307482543 | |
| 68978 | 250925_780745_16648422_1611 | 780745 | (not set) | (not set) | 38.89521790401 | -77.067775337031 | 2.1348 | 2025-09-25 16:38:31 | in_vehicle | 100 | 8.2165815801944 | |
| 68979 | 250925_788812_16657534_1525 | 788812 | (not set) | (not set) | 39.054363823529 | -76.974098589621 | 12.6253 | 2025-09-25 16:38:31 | unknown | 100 | 3.2008010943521 | |
| 68980 | 250925_788812_16657534_1525 | 788812 | (not set) | (not set) | 39.054363823529 | -76.974098589621 | 12.6253 | 2025-09-25 16:38:31 | unknown | 100 | 3.2008010943521 |